sensor_id;sensor_type;location;lat;lon;timestamp;P1;durP1;ratioP1;P2;durP2;ratioP2
23952;SDS011;12163;49.316;6.092;2022-08-27T00:00:14;5.97;;;2.92;;
23952;SDS011;12163;49.316;6.092;2022-08-27T00:02:42;5.63;;;2.45;;
23952;SDS011;12163;49.316;6.092;2022-08-27T00:05:10;7.80;;;3.30;;
23952;SDS011;12163;49.316;6.092;2022-08-27T00:07:38;7.43;;;3.30;;
23952;SDS011;12163;49.316;6.092;2022-08-27T00:10:06;9.13;;;3.10;;
23952;SDS011;12163;49.316;6.092;2022-08-27T00:12:35;4.32;;;3.15;;
23952;SDS011;12163;49.316;6.092;2022-08-27T00:15:03;5.13;;;2.75;;
23952;SDS011;12163;49.316;6.092;2022-08-27T00:17:31;9.18;;;3.15;;
23952;SDS011;12163;49.316;6.092;2022-08-27T00:19:58;5.05;;;2.80;;
23952;SDS011;12163;49.316;6.092;2022-08-27T00:22:25;5.97;;;2.83;;
23952;SDS011;12163;49.316;6.092;2022-08-27T00:24:52;5.15;;;3.10;;
23952;SDS011;12163;49.316;6.092;2022-08-27T00:27:18;5.35;;;2.85;;
23952;SDS011;12163;49.316;6.092;2022-08-27T00:29:46;5.85;;;3.10;;
23952;SDS011;12163;49.316;6.092;2022-08-27T00:32:13;6.13;;;2.83;;
23952;SDS011;12163;49.316;6.092;2022-08-27T00:34:41;5.95;;;2.55;;
23952;SDS011;12163;49.316;6.092;2022-08-27T00:37:07;4.30;;;2.58;;
23952;SDS011;12163;49.316;6.092;2022-08-27T00:39:34;5.28;;;2.42;;
23952;SDS011;12163;49.316;6.092;2022-08-27T00:42:05;7.35;;;2.50;;
23952;SDS011;12163;49.316;6.092;2022-08-27T00:44:33;4.50;;;2.70;;
23952;SDS011;12163;49.316;6.092;2022-08-27T00:47:02;9.35;;;2.58;;
23952;SDS011;12163;49.316;6.092;2022-08-27T00:49:33;4.57;;;2.20;;
23952;SDS011;12163;49.316;6.092;2022-08-27T00:52:52;4.38;;;2.63;;
23952;SDS011;12163;49.316;6.092;2022-08-27T00:55:09;5.43;;;2.83;;
23952;SDS011;12163;49.316;6.092;2022-08-27T00:57:39;5.55;;;2.40;;
23952;SDS011;12163;49.316;6.092;2022-08-27T01:00:11;3.67;;;2.42;;
23952;SDS011;12163;49.316;6.092;2022-08-27T01:02:41;6.22;;;2.75;;
23952;SDS011;12163;49.316;6.092;2022-08-27T01:05:11;5.28;;;2.13;;
23952;SDS011;12163;49.316;6.092;2022-08-27T01:07:42;8.00;;;3.15;;
23952;SDS011;12163;49.316;6.092;2022-08-27T01:12:41;5.40;;;2.33;;
23952;SDS011;12163;49.316;6.092;2022-08-27T01:15:09;4.70;;;2.60;;
23952;SDS011;12163;49.316;6.092;2022-08-27T01:17:45;3.90;;;2.20;;
23952;SDS011;12163;49.316;6.092;2022-08-27T01:20:35;4.03;;;2.20;;
23952;SDS011;12163;49.316;6.092;2022-08-27T01:23:21;4.85;;;2.42;;
23952;SDS011;12163;49.316;6.092;2022-08-27T01:26:03;5.25;;;2.60;;
23952;SDS011;12163;49.316;6.092;2022-08-27T01:28:33;4.60;;;2.60;;
23952;SDS011;12163;49.316;6.092;2022-08-27T01:31:06;5.30;;;2.40;;
23952;SDS011;12163;49.316;6.092;2022-08-27T01:33:34;5.40;;;2.70;;
23952;SDS011;12163;49.316;6.092;2022-08-27T01:36:01;6.95;;;2.50;;
23952;SDS011;12163;49.316;6.092;2022-08-27T01:38:29;5.85;;;2.45;;
23952;SDS011;12163;49.316;6.092;2022-08-27T01:40:57;8.55;;;3.17;;
23952;SDS011;12163;49.316;6.092;2022-08-27T01:43:25;4.72;;;2.35;;
23952;SDS011;12163;49.316;6.092;2022-08-27T01:45:53;6.13;;;2.65;;
23952;SDS011;12163;49.316;6.092;2022-08-27T01:48:20;4.50;;;2.30;;
23952;SDS011;12163;49.316;6.092;2022-08-27T01:50:47;5.78;;;2.08;;
23952;SDS011;12163;49.316;6.092;2022-08-27T01:53:19;10.38;;;2.80;;
23952;SDS011;12163;49.316;6.092;2022-08-27T01:55:48;6.22;;;2.92;;
23952;SDS011;12163;49.316;6.092;2022-08-27T01:58:17;3.75;;;2.47;;
23952;SDS011;12163;49.316;6.092;2022-08-27T02:00:47;7.22;;;2.70;;
23952;SDS011;12163;49.316;6.092;2022-08-27T02:03:22;6.47;;;2.33;;
23952;SDS011;12163;49.316;6.092;2022-08-27T02:05:48;8.60;;;2.70;;
23952;SDS011;12163;49.316;6.092;2022-08-27T02:08:16;4.03;;;2.17;;
23952;SDS011;12163;49.316;6.092;2022-08-27T02:10:44;7.05;;;2.33;;
23952;SDS011;12163;49.316;6.092;2022-08-27T02:13:12;5.93;;;2.80;;
23952;SDS011;12163;49.316;6.092;2022-08-27T02:15:39;4.75;;;2.00;;
23952;SDS011;12163;49.316;6.092;2022-08-27T02:18:07;5.22;;;2.33;;
23952;SDS011;12163;49.316;6.092;2022-08-27T02:20:35;11.32;;;2.85;;
23952;SDS011;12163;49.316;6.092;2022-08-27T02:23:02;5.47;;;2.22;;
23952;SDS011;12163;49.316;6.092;2022-08-27T02:25:30;4.82;;;2.10;;
23952;SDS011;12163;49.316;6.092;2022-08-27T02:27:57;7.45;;;2.83;;
23952;SDS011;12163;49.316;6.092;2022-08-27T02:30:26;6.45;;;2.72;;
23952;SDS011;12163;49.316;6.092;2022-08-27T02:32:54;5.38;;;2.50;;
23952;SDS011;12163;49.316;6.092;2022-08-27T02:35:21;6.20;;;2.80;;
23952;SDS011;12163;49.316;6.092;2022-08-27T02:37:50;8.30;;;2.58;;
23952;SDS011;12163;49.316;6.092;2022-08-27T02:40:17;6.07;;;2.72;;
23952;SDS011;12163;49.316;6.092;2022-08-27T02:42:46;7.72;;;2.83;;
23952;SDS011;12163;49.316;6.092;2022-08-27T02:45:13;6.72;;;2.58;;
23952;SDS011;12163;49.316;6.092;2022-08-27T02:47:42;8.93;;;2.47;;
23952;SDS011;12163;49.316;6.092;2022-08-27T02:50:09;6.20;;;3.00;;
23952;SDS011;12163;49.316;6.092;2022-08-27T02:52:37;5.15;;;2.72;;
23952;SDS011;12163;49.316;6.092;2022-08-27T02:55:04;9.10;;;3.20;;
23952;SDS011;12163;49.316;6.092;2022-08-27T02:57:31;7.13;;;2.85;;
23952;SDS011;12163;49.316;6.092;2022-08-27T03:00:03;5.55;;;2.72;;
23952;SDS011;12163;49.316;6.092;2022-08-27T03:02:32;5.43;;;2.25;;
23952;SDS011;12163;49.316;6.092;2022-08-27T03:04:59;4.97;;;1.90;;
23952;SDS011;12163;49.316;6.092;2022-08-27T03:07:25;8.35;;;2.45;;
23952;SDS011;12163;49.316;6.092;2022-08-27T03:09:52;7.63;;;2.80;;
23952;SDS011;12163;49.316;6.092;2022-08-27T03:12:19;6.35;;;2.30;;
23952;SDS011;12163;49.316;6.092;2022-08-27T03:14:48;4.35;;;2.00;;
23952;SDS011;12163;49.316;6.092;2022-08-27T03:17:14;6.07;;;2.15;;
23952;SDS011;12163;49.316;6.092;2022-08-27T03:20:00;5.20;;;2.22;;
23952;SDS011;12163;49.316;6.092;2022-08-27T03:22:27;6.03;;;2.90;;
23952;SDS011;12163;49.316;6.092;2022-08-27T03:24:54;5.65;;;2.92;;
23952;SDS011;12163;49.316;6.092;2022-08-27T03:27:21;5.72;;;2.58;;
23952;SDS011;12163;49.316;6.092;2022-08-27T03:29:48;8.63;;;2.90;;
23952;SDS011;12163;49.316;6.092;2022-08-27T03:32:14;6.93;;;2.75;;
23952;SDS011;12163;49.316;6.092;2022-08-27T03:34:41;7.30;;;2.70;;
23952;SDS011;12163;49.316;6.092;2022-08-27T03:37:08;13.10;;;2.78;;
23952;SDS011;12163;49.316;6.092;2022-08-27T03:39:34;5.80;;;2.30;;
23952;SDS011;12163;49.316;6.092;2022-08-27T03:42:01;5.07;;;2.33;;
23952;SDS011;12163;49.316;6.092;2022-08-27T03:44:28;5.40;;;2.50;;
23952;SDS011;12163;49.316;6.092;2022-08-27T03:46:55;4.28;;;2.78;;
23952;SDS011;12163;49.316;6.092;2022-08-27T03:49:22;11.77;;;3.25;;
23952;SDS011;12163;49.316;6.092;2022-08-27T03:51:50;8.65;;;2.75;;
23952;SDS011;12163;49.316;6.092;2022-08-27T03:54:17;5.15;;;2.65;;
23952;SDS011;12163;49.316;6.092;2022-08-27T03:56:44;5.85;;;2.90;;
23952;SDS011;12163;49.316;6.092;2022-08-27T03:59:12;11.95;;;3.92;;
23952;SDS011;12163;49.316;6.092;2022-08-27T04:01:41;5.97;;;3.35;;
23952;SDS011;12163;49.316;6.092;2022-08-27T04:04:08;11.68;;;4.65;;
23952;SDS011;12163;49.316;6.092;2022-08-27T04:06:35;13.10;;;3.90;;
23952;SDS011;12163;49.316;6.092;2022-08-27T04:09:02;5.25;;;3.50;;
23952;SDS011;12163;49.316;6.092;2022-08-27T04:11:29;9.25;;;3.85;;
23952;SDS011;12163;49.316;6.092;2022-08-27T04:14:01;6.97;;;3.40;;
23952;SDS011;12163;49.316;6.092;2022-08-27T04:16:43;8.77;;;3.90;;
23952;SDS011;12163;49.316;6.092;2022-08-27T04:19:10;8.15;;;4.10;;
23952;SDS011;12163;49.316;6.092;2022-08-27T04:21:40;8.23;;;4.03;;
23952;SDS011;12163;49.316;6.092;2022-08-27T04:24:08;8.68;;;3.80;;
23952;SDS011;12163;49.316;6.092;2022-08-27T04:26:38;9.07;;;3.17;;
23952;SDS011;12163;49.316;6.092;2022-08-27T04:29:05;7.72;;;3.60;;
23952;SDS011;12163;49.316;6.092;2022-08-27T04:31:32;6.78;;;3.50;;
23952;SDS011;12163;49.316;6.092;2022-08-27T04:34:00;8.52;;;3.85;;
23952;SDS011;12163;49.316;6.092;2022-08-27T04:36:27;6.28;;;3.15;;
23952;SDS011;12163;49.316;6.092;2022-08-27T04:38:54;7.10;;;3.15;;
23952;SDS011;12163;49.316;6.092;2022-08-27T04:41:21;10.60;;;3.97;;
23952;SDS011;12163;49.316;6.092;2022-08-27T04:43:49;10.45;;;4.43;;
23952;SDS011;12163;49.316;6.092;2022-08-27T04:46:19;9.65;;;4.15;;
23952;SDS011;12163;49.316;6.092;2022-08-27T04:48:47;7.80;;;3.78;;
23952;SDS011;12163;49.316;6.092;2022-08-27T04:51:14;7.15;;;3.78;;
23952;SDS011;12163;49.316;6.092;2022-08-27T04:53:43;5.85;;;3.70;;
23952;SDS011;12163;49.316;6.092;2022-08-27T04:56:13;7.05;;;3.75;;
23952;SDS011;12163;49.316;6.092;2022-08-27T05:01:13;5.65;;;3.15;;
23952;SDS011;12163;49.316;6.092;2022-08-27T05:03:42;4.80;;;2.95;;
23952;SDS011;12163;49.316;6.092;2022-08-27T05:06:10;6.25;;;2.88;;
23952;SDS011;12163;49.316;6.092;2022-08-27T05:08:37;5.65;;;3.58;;
23952;SDS011;12163;49.316;6.092;2022-08-27T05:11:09;8.70;;;3.75;;
23952;SDS011;12163;49.316;6.092;2022-08-27T05:13:43;9.05;;;3.33;;
23952;SDS011;12163;49.316;6.092;2022-08-27T05:16:11;7.88;;;3.00;;
23952;SDS011;12163;49.316;6.092;2022-08-27T05:18:46;6.65;;;2.80;;
23952;SDS011;12163;49.316;6.092;2022-08-27T05:21:24;8.10;;;3.22;;
23952;SDS011;12163;49.316;6.092;2022-08-27T05:23:53;7.10;;;3.25;;
23952;SDS011;12163;49.316;6.092;2022-08-27T05:26:21;7.68;;;3.60;;
23952;SDS011;12163;49.316;6.092;2022-08-27T05:28:48;6.40;;;3.00;;
23952;SDS011;12163;49.316;6.092;2022-08-27T05:31:15;7.53;;;3.10;;
23952;SDS011;12163;49.316;6.092;2022-08-27T05:33:45;6.65;;;3.00;;
23952;SDS011;12163;49.316;6.092;2022-08-27T05:36:13;6.60;;;3.38;;
23952;SDS011;12163;49.316;6.092;2022-08-27T05:38:42;9.43;;;4.63;;
23952;SDS011;12163;49.316;6.092;2022-08-27T05:41:10;11.48;;;4.60;;
23952;SDS011;12163;49.316;6.092;2022-08-27T05:43:39;6.30;;;3.83;;
23952;SDS011;12163;49.316;6.092;2022-08-27T05:46:15;8.82;;;4.70;;
23952;SDS011;12163;49.316;6.092;2022-08-27T05:48:42;8.65;;;3.35;;
23952;SDS011;12163;49.316;6.092;2022-08-27T05:51:11;12.75;;;4.47;;
23952;SDS011;12163;49.316;6.092;2022-08-27T05:53:53;10.65;;;4.53;;
23952;SDS011;12163;49.316;6.092;2022-08-27T05:56:22;8.73;;;3.75;;
23952;SDS011;12163;49.316;6.092;2022-08-27T05:58:50;9.77;;;4.15;;
23952;SDS011;12163;49.316;6.092;2022-08-27T06:01:40;10.25;;;3.78;;
23952;SDS011;12163;49.316;6.092;2022-08-27T06:04:12;7.68;;;3.25;;
23952;SDS011;12163;49.316;6.092;2022-08-27T06:06:43;9.93;;;4.80;;
23952;SDS011;12163;49.316;6.092;2022-08-27T06:09:12;13.82;;;4.65;;
23952;SDS011;12163;49.316;6.092;2022-08-27T06:11:40;9.13;;;4.68;;
23952;SDS011;12163;49.316;6.092;2022-08-27T06:14:07;10.65;;;4.70;;
23952;SDS011;12163;49.316;6.092;2022-08-27T06:16:35;14.25;;;4.80;;
23952;SDS011;12163;49.316;6.092;2022-08-27T06:19:03;10.18;;;5.13;;
23952;SDS011;12163;49.316;6.092;2022-08-27T06:21:31;10.55;;;4.53;;
23952;SDS011;12163;49.316;6.092;2022-08-27T06:23:58;11.90;;;5.45;;
23952;SDS011;12163;49.316;6.092;2022-08-27T06:26:26;10.05;;;4.22;;
23952;SDS011;12163;49.316;6.092;2022-08-27T06:28:53;7.85;;;4.57;;
23952;SDS011;12163;49.316;6.092;2022-08-27T06:31:21;11.80;;;3.17;;
23952;SDS011;12163;49.316;6.092;2022-08-27T06:33:51;10.07;;;4.00;;
23952;SDS011;12163;49.316;6.092;2022-08-27T06:36:20;7.70;;;3.92;;
23952;SDS011;12163;49.316;6.092;2022-08-27T06:38:51;10.07;;;4.03;;
23952;SDS011;12163;49.316;6.092;2022-08-27T06:41:20;8.38;;;4.40;;
23952;SDS011;12163;49.316;6.092;2022-08-27T06:43:49;10.95;;;4.65;;
23952;SDS011;12163;49.316;6.092;2022-08-27T06:46:19;13.68;;;4.97;;
23952;SDS011;12163;49.316;6.092;2022-08-27T06:48:51;9.45;;;3.85;;
23952;SDS011;12163;49.316;6.092;2022-08-27T06:51:23;9.95;;;3.60;;
23952;SDS011;12163;49.316;6.092;2022-08-27T06:53:52;10.90;;;4.38;;
23952;SDS011;12163;49.316;6.092;2022-08-27T06:56:21;12.35;;;4.90;;
23952;SDS011;12163;49.316;6.092;2022-08-27T06:58:52;11.18;;;5.90;;
23952;SDS011;12163;49.316;6.092;2022-08-27T07:01:24;10.90;;;5.30;;
23952;SDS011;12163;49.316;6.092;2022-08-27T07:03:56;9.98;;;4.25;;
23952;SDS011;12163;49.316;6.092;2022-08-27T07:06:25;12.80;;;6.65;;
23952;SDS011;12163;49.316;6.092;2022-08-27T07:08:54;16.73;;;6.65;;
23952;SDS011;12163;49.316;6.092;2022-08-27T07:11:22;14.13;;;7.35;;
23952;SDS011;12163;49.316;6.092;2022-08-27T07:13:49;9.23;;;4.82;;
23952;SDS011;12163;49.316;6.092;2022-08-27T07:16:21;13.52;;;6.80;;
23952;SDS011;12163;49.316;6.092;2022-08-27T07:18:51;10.13;;;5.93;;
23952;SDS011;12163;49.316;6.092;2022-08-27T07:21:20;14.85;;;7.68;;
23952;SDS011;12163;49.316;6.092;2022-08-27T07:23:51;15.57;;;8.18;;
23952;SDS011;12163;49.316;6.092;2022-08-27T07:26:20;16.67;;;8.15;;
23952;SDS011;12163;49.316;6.092;2022-08-27T07:28:48;9.65;;;5.85;;
23952;SDS011;12163;49.316;6.092;2022-08-27T07:31:16;13.88;;;8.38;;
23952;SDS011;12163;49.316;6.092;2022-08-27T07:33:45;14.63;;;7.75;;
23952;SDS011;12163;49.316;6.092;2022-08-27T07:36:18;15.57;;;7.38;;
23952;SDS011;12163;49.316;6.092;2022-08-27T07:38:45;13.82;;;7.00;;
23952;SDS011;12163;49.316;6.092;2022-08-27T07:41:26;11.65;;;7.15;;
23952;SDS011;12163;49.316;6.092;2022-08-27T07:44:00;14.27;;;7.10;;
23952;SDS011;12163;49.316;6.092;2022-08-27T07:46:51;17.83;;;9.90;;
23952;SDS011;12163;49.316;6.092;2022-08-27T07:49:18;14.10;;;8.38;;
23952;SDS011;12163;49.316;6.092;2022-08-27T07:51:47;11.52;;;7.32;;
23952;SDS011;12163;49.316;6.092;2022-08-27T07:54:14;16.67;;;9.80;;
23952;SDS011;12163;49.316;6.092;2022-08-27T07:56:41;15.93;;;8.45;;
23952;SDS011;12163;49.316;6.092;2022-08-27T07:59:21;14.88;;;8.25;;
23952;SDS011;12163;49.316;6.092;2022-08-27T08:01:49;12.30;;;6.70;;
23952;SDS011;12163;49.316;6.092;2022-08-27T08:04:18;11.07;;;6.25;;
23952;SDS011;12163;49.316;6.092;2022-08-27T08:06:45;15.35;;;8.05;;
23952;SDS011;12163;49.316;6.092;2022-08-27T08:09:13;14.30;;;7.28;;
23952;SDS011;12163;49.316;6.092;2022-08-27T08:11:40;12.60;;;7.78;;
23952;SDS011;12163;49.316;6.092;2022-08-27T08:14:06;16.40;;;8.40;;
23952;SDS011;12163;49.316;6.092;2022-08-27T08:16:33;17.13;;;8.50;;
23952;SDS011;12163;49.316;6.092;2022-08-27T08:19:00;17.17;;;9.05;;
23952;SDS011;12163;49.316;6.092;2022-08-27T08:21:27;11.65;;;7.28;;
23952;SDS011;12163;49.316;6.092;2022-08-27T08:23:53;16.05;;;8.65;;
23952;SDS011;12163;49.316;6.092;2022-08-27T08:26:20;16.42;;;8.45;;
23952;SDS011;12163;49.316;6.092;2022-08-27T08:28:48;14.20;;;7.72;;
23952;SDS011;12163;49.316;6.092;2022-08-27T08:31:14;14.13;;;6.28;;
23952;SDS011;12163;49.316;6.092;2022-08-27T08:33:41;11.70;;;7.10;;
23952;SDS011;12163;49.316;6.092;2022-08-27T08:36:10;18.90;;;9.30;;
23952;SDS011;12163;49.316;6.092;2022-08-27T08:38:38;12.85;;;7.68;;
23952;SDS011;12163;49.316;6.092;2022-08-27T08:41:18;15.13;;;7.78;;
23952;SDS011;12163;49.316;6.092;2022-08-27T08:43:56;12.20;;;7.63;;
23952;SDS011;12163;49.316;6.092;2022-08-27T08:46:38;17.20;;;7.68;;
23952;SDS011;12163;49.316;6.092;2022-08-27T08:52:02;16.52;;;8.93;;
23952;SDS011;12163;49.316;6.092;2022-08-27T08:55:00;11.52;;;7.10;;
23952;SDS011;12163;49.316;6.092;2022-08-27T08:57:38;12.23;;;7.05;;
23952;SDS011;12163;49.316;6.092;2022-08-27T09:00:13;13.80;;;8.10;;
23952;SDS011;12163;49.316;6.092;2022-08-27T09:02:41;13.15;;;8.35;;
23952;SDS011;12163;49.316;6.092;2022-08-27T09:05:15;10.93;;;7.00;;
23952;SDS011;12163;49.316;6.092;2022-08-27T09:08:02;11.80;;;6.80;;
23952;SDS011;12163;49.316;6.092;2022-08-27T09:10:58;16.45;;;8.27;;
23952;SDS011;12163;49.316;6.092;2022-08-27T09:13:30;17.40;;;7.43;;
23952;SDS011;12163;49.316;6.092;2022-08-27T09:16:03;17.13;;;9.00;;
23952;SDS011;12163;49.316;6.092;2022-08-27T09:18:30;12.40;;;6.72;;
23952;SDS011;12163;49.316;6.092;2022-08-27T09:21:14;10.55;;;6.38;;
23952;SDS011;12163;49.316;6.092;2022-08-27T09:26:40;16.50;;;9.18;;
23952;SDS011;12163;49.316;6.092;2022-08-27T09:29:09;17.73;;;11.00;;
23952;SDS011;12163;49.316;6.092;2022-08-27T09:31:48;14.57;;;9.75;;
23952;SDS011;12163;49.316;6.092;2022-08-27T09:34:20;21.73;;;12.32;;
23952;SDS011;12163;49.316;6.092;2022-08-27T09:39:37;16.75;;;9.18;;
23952;SDS011;12163;49.316;6.092;2022-08-27T09:42:23;23.80;;;14.10;;
23952;SDS011;12163;49.316;6.092;2022-08-27T09:44:55;25.92;;;13.85;;
23952;SDS011;12163;49.316;6.092;2022-08-27T09:47:22;24.52;;;14.05;;
23952;SDS011;12163;49.316;6.092;2022-08-27T09:49:59;20.20;;;12.88;;
23952;SDS011;12163;49.316;6.092;2022-08-27T09:52:33;25.17;;;15.20;;
23952;SDS011;12163;49.316;6.092;2022-08-27T09:55:03;17.10;;;11.60;;
23952;SDS011;12163;49.316;6.092;2022-08-27T09:57:37;28.02;;;15.50;;
23952;SDS011;12163;49.316;6.092;2022-08-27T10:00:07;23.58;;;14.43;;
23952;SDS011;12163;49.316;6.092;2022-08-27T10:02:50;23.67;;;14.10;;
23952;SDS011;12163;49.316;6.092;2022-08-27T10:05:24;23.88;;;14.23;;
23952;SDS011;12163;49.316;6.092;2022-08-27T10:08:02;26.50;;;15.52;;
23952;SDS011;12163;49.316;6.092;2022-08-27T10:10:50;22.73;;;15.15;;
23952;SDS011;12163;49.316;6.092;2022-08-27T10:13:27;22.50;;;15.05;;
23952;SDS011;12163;49.316;6.092;2022-08-27T10:18:53;21.75;;;15.13;;
23952;SDS011;12163;49.316;6.092;2022-08-27T10:21:38;26.80;;;13.48;;
23952;SDS011;12163;49.316;6.092;2022-08-27T10:24:14;20.05;;;12.95;;
23952;SDS011;12163;49.316;6.092;2022-08-27T10:30:15;26.25;;;15.88;;
23952;SDS011;12163;49.316;6.092;2022-08-27T10:32:54;29.40;;;16.05;;
23952;SDS011;12163;49.316;6.092;2022-08-27T10:35:48;25.98;;;14.88;;
23952;SDS011;12163;49.316;6.092;2022-08-27T10:38:32;24.77;;;15.00;;
23952;SDS011;12163;49.316;6.092;2022-08-27T10:41:24;23.17;;;15.63;;
23952;SDS011;12163;49.316;6.092;2022-08-27T10:44:14;20.95;;;13.43;;
23952;SDS011;12163;49.316;6.092;2022-08-27T10:49:56;21.75;;;14.80;;
23952;SDS011;12163;49.316;6.092;2022-08-27T10:55:50;25.40;;;13.07;;
23952;SDS011;12163;49.316;6.092;2022-08-27T10:58:23;24.80;;;14.65;;
23952;SDS011;12163;49.316;6.092;2022-08-27T11:03:48;24.77;;;15.82;;
23952;SDS011;12163;49.316;6.092;2022-08-27T11:06:25;20.65;;;12.85;;
23952;SDS011;12163;49.316;6.092;2022-08-27T11:09:04;17.67;;;11.77;;
23952;SDS011;12163;49.316;6.092;2022-08-27T11:14:44;28.40;;;14.98;;
23952;SDS011;12163;49.316;6.092;2022-08-27T11:17:28;19.75;;;12.73;;
23952;SDS011;12163;49.316;6.092;2022-08-27T11:22:47;18.98;;;12.65;;
23952;SDS011;12163;49.316;6.092;2022-08-27T11:28:01;24.05;;;13.95;;
23952;SDS011;12163;49.316;6.092;2022-08-27T11:33:03;20.48;;;13.20;;
23952;SDS011;12163;49.316;6.092;2022-08-27T11:43:48;25.65;;;14.95;;
23952;SDS011;12163;49.316;6.092;2022-08-27T11:46:24;20.30;;;14.27;;
23952;SDS011;12163;49.316;6.092;2022-08-27T11:48:57;34.30;;;15.70;;
23952;SDS011;12163;49.316;6.092;2022-08-27T11:51:31;24.00;;;14.57;;
23952;SDS011;12163;49.316;6.092;2022-08-27T11:54:02;20.27;;;12.52;;
23952;SDS011;12163;49.316;6.092;2022-08-27T11:56:39;20.02;;;13.35;;
23952;SDS011;12163;49.316;6.092;2022-08-27T11:59:30;21.90;;;13.73;;
23952;SDS011;12163;49.316;6.092;2022-08-27T12:02:09;19.35;;;13.20;;
23952;SDS011;12163;49.316;6.092;2022-08-27T12:07:58;21.85;;;12.77;;
23952;SDS011;12163;49.316;6.092;2022-08-27T12:10:28;15.88;;;11.95;;
23952;SDS011;12163;49.316;6.092;2022-08-27T12:13:10;19.38;;;13.07;;
23952;SDS011;12163;49.316;6.092;2022-08-27T12:29:49;17.58;;;12.13;;
23952;SDS011;12163;49.316;6.092;2022-08-27T12:40:39;15.93;;;11.57;;
23952;SDS011;12163;49.316;6.092;2022-08-27T12:43:12;17.30;;;11.43;;
23952;SDS011;12163;49.316;6.092;2022-08-27T12:45:44;18.70;;;10.68;;
23952;SDS011;12163;49.316;6.092;2022-08-27T12:48:11;19.42;;;11.05;;
23952;SDS011;12163;49.316;6.092;2022-08-27T12:50:39;17.38;;;11.63;;
23952;SDS011;12163;49.316;6.092;2022-08-27T13:01:15;14.52;;;10.10;;
23952;SDS011;12163;49.316;6.092;2022-08-27T13:03:53;17.08;;;10.43;;
23952;SDS011;12163;49.316;6.092;2022-08-27T13:06:27;14.15;;;9.77;;
23952;SDS011;12163;49.316;6.092;2022-08-27T13:08:57;13.73;;;10.32;;
23952;SDS011;12163;49.316;6.092;2022-08-27T13:11:26;14.10;;;10.10;;
23952;SDS011;12163;49.316;6.092;2022-08-27T13:14:07;16.38;;;9.98;;
23952;SDS011;12163;49.316;6.092;2022-08-27T13:16:37;16.67;;;9.35;;
23952;SDS011;12163;49.316;6.092;2022-08-27T13:19:12;13.15;;;9.55;;
23952;SDS011;12163;49.316;6.092;2022-08-27T13:21:45;13.18;;;9.05;;
23952;SDS011;12163;49.316;6.092;2022-08-27T13:24:17;16.80;;;9.65;;
23952;SDS011;12163;49.316;6.092;2022-08-27T13:26:56;13.65;;;9.00;;
23952;SDS011;12163;49.316;6.092;2022-08-27T13:29:23;12.43;;;9.60;;
23952;SDS011;12163;49.316;6.092;2022-08-27T13:31:51;11.48;;;8.38;;
23952;SDS011;12163;49.316;6.092;2022-08-27T13:34:20;11.00;;;8.38;;
23952;SDS011;12163;49.316;6.092;2022-08-27T13:37:02;13.80;;;8.27;;
23952;SDS011;12163;49.316;6.092;2022-08-27T13:39:32;12.18;;;7.68;;
23952;SDS011;12163;49.316;6.092;2022-08-27T13:42:01;10.23;;;8.02;;
23952;SDS011;12163;49.316;6.092;2022-08-27T13:44:30;10.98;;;7.22;;
23952;SDS011;12163;49.316;6.092;2022-08-27T13:47:04;13.75;;;8.02;;
23952;SDS011;12163;49.316;6.092;2022-08-27T13:49:41;10.98;;;7.80;;
23952;SDS011;12163;49.316;6.092;2022-08-27T13:54:48;12.05;;;8.15;;
23952;SDS011;12163;49.316;6.092;2022-08-27T13:57:24;10.10;;;7.30;;
23952;SDS011;12163;49.316;6.092;2022-08-27T13:59:53;12.32;;;8.20;;
23952;SDS011;12163;49.316;6.092;2022-08-27T14:02:25;15.30;;;8.13;;
23952;SDS011;12163;49.316;6.092;2022-08-27T14:05:13;11.80;;;7.90;;
23952;SDS011;12163;49.316;6.092;2022-08-27T14:07:47;9.45;;;6.80;;
23952;SDS011;12163;49.316;6.092;2022-08-27T14:12:44;10.05;;;7.25;;
23952;SDS011;12163;49.316;6.092;2022-08-27T14:15:17;9.45;;;6.25;;
23952;SDS011;12163;49.316;6.092;2022-08-27T14:17:44;13.35;;;7.22;;
23952;SDS011;12163;49.316;6.092;2022-08-27T14:20:13;7.07;;;5.85;;
23952;SDS011;12163;49.316;6.092;2022-08-27T14:22:42;12.13;;;7.18;;
23952;SDS011;12163;49.316;6.092;2022-08-27T14:25:10;10.85;;;7.55;;
23952;SDS011;12163;49.316;6.092;2022-08-27T14:27:37;8.60;;;6.60;;
23952;SDS011;12163;49.316;6.092;2022-08-27T14:30:18;9.05;;;7.10;;
23952;SDS011;12163;49.316;6.092;2022-08-27T14:32:54;13.20;;;7.20;;
23952;SDS011;12163;49.316;6.092;2022-08-27T14:35:23;12.82;;;6.57;;
23952;SDS011;12163;49.316;6.092;2022-08-27T14:37:51;13.70;;;7.00;;
23952;SDS011;12163;49.316;6.092;2022-08-27T14:40:18;13.80;;;6.63;;
23952;SDS011;12163;49.316;6.092;2022-08-27T14:42:45;11.65;;;6.72;;
23952;SDS011;12163;49.316;6.092;2022-08-27T14:45:11;14.13;;;7.30;;
23952;SDS011;12163;49.316;6.092;2022-08-27T14:47:39;11.55;;;7.22;;
23952;SDS011;12163;49.316;6.092;2022-08-27T14:50:08;14.00;;;7.25;;
23952;SDS011;12163;49.316;6.092;2022-08-27T14:52:37;13.75;;;7.15;;
23952;SDS011;12163;49.316;6.092;2022-08-27T14:55:07;9.40;;;6.60;;
23952;SDS011;12163;49.316;6.092;2022-08-27T14:57:36;9.07;;;6.45;;
23952;SDS011;12163;49.316;6.092;2022-08-27T15:00:05;11.20;;;6.65;;
23952;SDS011;12163;49.316;6.092;2022-08-27T15:02:33;10.93;;;6.30;;
23952;SDS011;12163;49.316;6.092;2022-08-27T15:05:00;8.48;;;6.03;;
23952;SDS011;12163;49.316;6.092;2022-08-27T15:07:37;8.02;;;6.38;;
23952;SDS011;12163;49.316;6.092;2022-08-27T15:10:06;10.27;;;7.00;;
23952;SDS011;12163;49.316;6.092;2022-08-27T15:12:33;9.95;;;6.63;;
23952;SDS011;12163;49.316;6.092;2022-08-27T15:15:01;9.75;;;6.60;;
23952;SDS011;12163;49.316;6.092;2022-08-27T15:17:28;10.65;;;6.70;;
23952;SDS011;12163;49.316;6.092;2022-08-27T15:20:02;14.25;;;6.88;;
23952;SDS011;12163;49.316;6.092;2022-08-27T15:22:33;8.68;;;5.93;;
23952;SDS011;12163;49.316;6.092;2022-08-27T15:25:05;8.25;;;6.40;;
23952;SDS011;12163;49.316;6.092;2022-08-27T15:27:34;11.10;;;6.68;;
23952;SDS011;12163;49.316;6.092;2022-08-27T15:30:09;8.77;;;5.97;;
23952;SDS011;12163;49.316;6.092;2022-08-27T15:32:39;9.68;;;6.93;;
23952;SDS011;12163;49.316;6.092;2022-08-27T15:35:09;11.48;;;6.55;;
23952;SDS011;12163;49.316;6.092;2022-08-27T15:37:39;10.65;;;7.05;;
23952;SDS011;12163;49.316;6.092;2022-08-27T15:40:07;14.00;;;7.00;;
23952;SDS011;12163;49.316;6.092;2022-08-27T15:42:35;8.18;;;6.00;;
23952;SDS011;12163;49.316;6.092;2022-08-27T15:45:02;8.20;;;6.10;;
23952;SDS011;12163;49.316;6.092;2022-08-27T15:47:30;10.27;;;7.07;;
23952;SDS011;12163;49.316;6.092;2022-08-27T15:49:56;13.07;;;6.72;;
23952;SDS011;12163;49.316;6.092;2022-08-27T15:52:23;9.25;;;7.15;;
23952;SDS011;12163;49.316;6.092;2022-08-27T15:55:06;11.38;;;7.80;;
23952;SDS011;12163;49.316;6.092;2022-08-27T15:57:39;10.13;;;6.80;;
23952;SDS011;12163;49.316;6.092;2022-08-27T16:00:06;10.43;;;6.40;;
23952;SDS011;12163;49.316;6.092;2022-08-27T16:02:34;10.50;;;6.35;;
23952;SDS011;12163;49.316;6.092;2022-08-27T16:05:00;9.70;;;7.15;;
23952;SDS011;12163;49.316;6.092;2022-08-27T16:07:27;12.82;;;7.45;;
23952;SDS011;12163;49.316;6.092;2022-08-27T16:09:54;12.07;;;8.05;;
23952;SDS011;12163;49.316;6.092;2022-08-27T16:12:20;11.60;;;7.82;;
23952;SDS011;12163;49.316;6.092;2022-08-27T16:14:53;13.60;;;7.68;;
23952;SDS011;12163;49.316;6.092;2022-08-27T16:17:20;11.10;;;7.07;;
23952;SDS011;12163;49.316;6.092;2022-08-27T16:19:47;10.05;;;6.95;;
23952;SDS011;12163;49.316;6.092;2022-08-27T16:22:14;12.75;;;6.95;;
23952;SDS011;12163;49.316;6.092;2022-08-27T16:24:41;15.15;;;7.57;;
23952;SDS011;12163;49.316;6.092;2022-08-27T16:27:08;13.35;;;7.70;;